Bucks Bridge, New York
Current Conditions -  °F | °C
As of 12:53 AM on Saturday 20 Dec 2014 (Local Time) from KMSS Reporting Station
Clear Clear  
Wind Chill:   Ceiling: Unl
Heat Index:   Visibility: 9mi
Dew Point:   Wind: 5mph
Humidity: 83%   Direction: 240°WSW
Pressure: 30.28"   Gusts: NA
Location:  44.5792°N, 75.1592°W
Report Text: KMSS 200553Z AUTO 24004KT 9SM CLR M13/M16 A3028 RMK AO2 SLP263 I1000 I6000 T11331156 11094 21144 53005
Loading
Personal Weather Stations






























Interactive Weather Map New forecast layout! Learn more

10-Day Weather Forecast

Advertisements
Track Severe Weather on mobile